createdAt,value
2018-03-21T00:00:02.978Z,19.76
2018-03-21T00:02:28.958Z,19.74
2018-03-21T00:04:54.926Z,19.73
2018-03-21T00:07:20.971Z,19.70
2018-03-21T00:09:46.936Z,19.74
2018-03-21T00:12:12.922Z,19.75
2018-03-21T00:14:38.954Z,19.73
2018-03-21T00:17:04.898Z,19.70
2018-03-21T00:19:30.892Z,19.68
2018-03-21T00:21:56.889Z,19.68
2018-03-21T00:24:22.894Z,19.68
2018-03-21T00:26:48.901Z,19.67
2018-03-21T00:29:14.875Z,19.67
2018-03-21T00:31:40.811Z,19.68
2018-03-21T00:34:06.781Z,19.68
2018-03-21T00:36:32.779Z,19.68
2018-03-21T00:38:58.730Z,19.66
2018-03-21T00:41:24.714Z,19.63
2018-03-21T00:43:50.693Z,19.67
2018-03-21T00:46:16.646Z,19.69
2018-03-21T00:48:42.595Z,19.69
2018-03-21T00:51:08.595Z,19.65
2018-03-21T00:53:34.569Z,19.69
2018-03-21T00:56:00.517Z,19.67
2018-03-21T00:58:26.466Z,19.65
2018-03-21T01:00:52.467Z,19.63
2018-03-21T01:03:18.426Z,19.62
2018-03-21T01:05:44.381Z,19.60
2018-03-21T01:08:10.354Z,19.64
2018-03-21T01:10:36.306Z,19.62
2018-03-21T01:13:02.289Z,19.61
2018-03-21T01:15:28.238Z,19.57
2018-03-21T01:17:54.192Z,19.57
2018-03-21T01:20:20.141Z,19.57
2018-03-21T01:22:46.194Z,19.54
2018-03-21T01:25:12.155Z,19.58
2018-03-21T01:27:38.110Z,19.56
2018-03-21T01:30:04.115Z,19.55
2018-03-21T01:32:30.091Z,19.55
2018-03-21T01:34:56.075Z,19.57
2018-03-21T01:37:22.186Z,19.57
2018-03-21T01:39:48.159Z,19.57
2018-03-21T01:42:14.141Z,19.52
2018-03-21T01:44:40.161Z,19.62
2018-03-21T01:47:06.287Z,19.55
2018-03-21T01:49:32.179Z,19.57
2018-03-21T01:51:58.135Z,19.56
2018-03-21T01:54:24.093Z,19.52
2018-03-21T01:56:50.058Z,19.52
2018-03-21T01:59:16.034Z,19.52
2018-03-21T02:01:42.002Z,19.56
2018-03-21T02:04:07.974Z,19.56
2018-03-21T02:06:33.942Z,19.51
2018-03-21T02:08:59.913Z,19.54
2018-03-21T02:11:25.901Z,19.52
2018-03-21T02:13:51.862Z,19.46
2018-03-21T02:16:17.837Z,19.46
2018-03-21T02:18:43.782Z,19.46
2018-03-21T02:21:09.723Z,19.52
2018-03-21T02:23:35.686Z,19.54
2018-03-21T02:26:01.634Z,19.51
2018-03-21T02:28:27.594Z,19.48
2018-03-21T02:30:53.538Z,19.50
2018-03-21T02:33:19.531Z,19.47
2018-03-21T02:35:45.487Z,19.51
2018-03-21T02:38:11.431Z,19.54
2018-03-21T02:40:37.396Z,19.47
2018-03-21T02:43:03.358Z,19.44
2018-03-21T02:45:29.299Z,19.48
2018-03-21T02:47:55.250Z,19.44
2018-03-21T02:50:21.233Z,19.45
2018-03-21T02:52:47.182Z,19.46
2018-03-21T02:55:13.166Z,19.40
2018-03-21T02:57:39.138Z,19.41
2018-03-21T03:00:05.102Z,19.41
2018-03-21T03:02:31.060Z,19.39
2018-03-21T03:04:57.027Z,19.41
2018-03-21T03:07:22.986Z,19.45
2018-03-21T03:09:48.949Z,19.42
2018-03-21T03:12:14.923Z,19.45
2018-03-21T03:14:40.878Z,19.38
2018-03-21T03:17:06.855Z,19.41
2018-03-21T03:19:32.837Z,19.48
2018-03-21T03:21:58.789Z,19.43
2018-03-21T03:24:24.747Z,19.43
2018-03-21T03:26:50.725Z,19.45
2018-03-21T03:29:16.687Z,19.39
2018-03-21T03:31:42.667Z,19.38
2018-03-21T03:34:08.618Z,19.38
2018-03-21T03:36:34.588Z,19.46
2018-03-21T03:39:00.559Z,19.59
2018-03-21T03:41:26.550Z,19.72
2018-03-21T03:43:52.502Z,19.85
2018-03-21T03:46:18.456Z,19.92
2018-03-21T03:48:44.434Z,19.98
2018-03-21T03:51:10.394Z,19.91
2018-03-21T03:53:36.386Z,19.95
2018-03-21T03:56:02.345Z,19.99
2018-03-21T03:58:28.319Z,20.02
2018-03-21T04:00:54.286Z,19.98
2018-03-21T04:03:20.256Z,20.03
2018-03-21T04:05:46.213Z,20.11
2018-03-21T04:08:12.166Z,20.15
2018-03-21T04:10:38.163Z,20.01
2018-03-21T04:13:04.143Z,20.17
2018-03-21T04:15:30.104Z,20.09
2018-03-21T04:17:56.071Z,20.07
2018-03-21T04:20:22.055Z,20.07
2018-03-21T04:22:48.021Z,20.10
2018-03-21T04:25:14.195Z,20.18
2018-03-21T04:27:40.251Z,20.08
2018-03-21T04:30:06.209Z,20.14
2018-03-21T04:32:32.161Z,20.17
2018-03-21T04:34:58.121Z,20.19
2018-03-21T04:37:24.081Z,20.11
2018-03-21T04:39:50.033Z,20.16
2018-03-21T04:42:16.070Z,20.13
2018-03-21T04:44:42.026Z,20.21
2018-03-21T04:47:07.990Z,20.12
2018-03-21T04:49:33.969Z,20.12
2018-03-21T04:51:59.948Z,20.20
2018-03-21T04:54:25.897Z,20.21
2018-03-21T04:56:51.861Z,20.09
2018-03-21T04:59:17.830Z,20.11
2018-03-21T05:01:43.822Z,20.11
2018-03-21T05:04:09.773Z,20.13
2018-03-21T05:06:35.738Z,20.10
2018-03-21T05:09:01.697Z,20.09
2018-03-21T05:11:27.679Z,20.12
2018-03-21T05:13:53.657Z,20.12
2018-03-21T05:16:19.617Z,20.10
2018-03-21T05:18:45.597Z,20.20
2018-03-21T05:21:11.538Z,20.17
2018-03-21T05:23:37.514Z,20.19
2018-03-21T05:26:03.463Z,20.21
2018-03-21T05:28:29.408Z,20.19
2018-03-21T05:30:55.370Z,20.25
2018-03-21T05:33:21.336Z,20.22
2018-03-21T05:35:47.308Z,20.20
2018-03-21T05:38:13.272Z,20.18
2018-03-21T05:40:39.239Z,20.11
2018-03-21T05:43:05.197Z,20.09
2018-03-21T05:45:31.179Z,20.09
2018-03-21T05:47:57.186Z,20.14
2018-03-21T05:50:23.120Z,20.11
2018-03-21T05:52:49.142Z,20.08
2018-03-21T05:55:15.123Z,20.04
2018-03-21T05:57:41.091Z,20.06
2018-03-21T06:00:07.070Z,19.97
2018-03-21T06:02:33.034Z,20.01
2018-03-21T06:04:59.037Z,20.03
2018-03-21T06:07:25.002Z,20.00
2018-03-21T06:09:50.985Z,20.18
2018-03-21T06:12:16.957Z,20.27
2018-03-21T06:14:43.011Z,20.28
2018-03-21T06:17:08.983Z,20.22
2018-03-21T06:19:34.960Z,20.19
2018-03-21T06:22:00.935Z,20.19
2018-03-21T06:24:26.894Z,20.30
2018-03-21T06:26:52.883Z,20.23
2018-03-21T06:29:18.853Z,20.26
2018-03-21T06:31:44.842Z,20.19
2018-03-21T06:34:10.798Z,20.22
2018-03-21T06:36:36.767Z,20.17
2018-03-21T06:39:02.739Z,20.12
2018-03-21T06:41:28.698Z,20.20
2018-03-21T06:43:54.673Z,20.14
2018-03-21T06:46:20.659Z,20.14
2018-03-21T06:48:46.625Z,20.09
2018-03-21T06:51:12.588Z,20.09
2018-03-21T06:53:38.576Z,20.08
2018-03-21T06:56:04.549Z,20.06
2018-03-21T06:58:30.506Z,20.08
2018-03-21T07:00:56.487Z,20.12
2018-03-21T07:03:22.455Z,20.17
2018-03-21T07:05:48.420Z,20.28
2018-03-21T07:08:14.405Z,20.28
2018-03-21T07:10:40.375Z,20.29
2018-03-21T07:13:06.349Z,20.21
2018-03-21T07:15:32.314Z,20.23
2018-03-21T07:17:58.286Z,20.21
2018-03-21T07:20:24.265Z,20.19
2018-03-21T07:22:50.310Z,20.19
2018-03-21T07:25:16.293Z,20.11
2018-03-21T07:27:42.266Z,20.15
2018-03-21T07:30:08.217Z,20.11
2018-03-21T07:32:34.198Z,20.10
2018-03-21T07:35:00.176Z,20.11
2018-03-21T07:37:26.174Z,20.12
2018-03-21T07:39:52.215Z,20.09
2018-03-21T07:42:18.182Z,20.09
2018-03-21T07:44:44.117Z,20.17
2018-03-21T07:47:10.130Z,20.31
2018-03-21T07:49:36.107Z,20.29
2018-03-21T07:52:02.075Z,20.31
2018-03-21T07:54:28.046Z,20.27
2018-03-21T07:56:54.013Z,20.22
2018-03-21T07:59:19.992Z,20.21
2018-03-21T08:01:45.969Z,20.20
2018-03-21T08:04:11.935Z,20.19
2018-03-21T08:06:37.906Z,20.21
2018-03-21T08:09:03.853Z,20.17
2018-03-21T08:11:29.843Z,20.16
2018-03-21T08:13:55.807Z,20.16
2018-03-21T08:16:21.797Z,20.11
2018-03-21T08:18:47.765Z,20.16
2018-03-21T08:21:13.752Z,20.04
2018-03-21T08:23:39.725Z,20.09
2018-03-21T08:26:05.697Z,20.06
2018-03-21T08:28:31.644Z,20.09
2018-03-21T08:30:57.819Z,20.08
2018-03-21T08:33:23.877Z,20.08
2018-03-21T08:35:49.923Z,20.03
2018-03-21T08:38:15.875Z,20.03
2018-03-21T08:40:41.837Z,20.05
2018-03-21T08:43:07.792Z,20.12
2018-03-21T08:45:33.854Z,20.10
2018-03-21T08:47:59.872Z,20.13
2018-03-21T08:50:25.848Z,20.23
2018-03-21T08:52:51.804Z,20.23
2018-03-21T08:55:17.859Z,20.22
2018-03-21T08:57:43.838Z,20.26
2018-03-21T09:00:09.815Z,20.29
2018-03-21T09:02:35.789Z,20.19
2018-03-21T09:05:01.762Z,20.18
2018-03-21T09:07:27.760Z,20.23
2018-03-21T09:09:53.693Z,20.18
2018-03-21T09:12:19.686Z,20.30
2018-03-21T09:14:45.648Z,20.45
2018-03-21T09:17:11.636Z,20.43
2018-03-21T09:19:37.627Z,20.38
2018-03-21T09:22:03.597Z,20.39
2018-03-21T09:24:29.549Z,20.36
2018-03-21T09:26:55.515Z,20.39
2018-03-21T09:29:21.480Z,20.38
2018-03-21T09:31:47.442Z,20.36
2018-03-21T09:34:13.410Z,20.30
2018-03-21T09:36:39.375Z,20.19
2018-03-21T09:39:05.436Z,20.28
2018-03-21T09:41:31.334Z,20.37
2018-03-21T09:43:57.296Z,20.37
2018-03-21T09:46:23.299Z,20.25
2018-03-21T09:48:49.279Z,20.33
2018-03-21T09:51:15.257Z,20.36
2018-03-21T09:53:41.237Z,20.26
2018-03-21T09:56:07.209Z,20.27
2018-03-21T09:58:33.192Z,20.34
2018-03-21T10:00:59.147Z,20.19
2018-03-21T10:03:25.116Z,20.18
2018-03-21T10:05:51.075Z,20.37
2018-03-21T10:08:17.105Z,20.42
2018-03-21T10:10:43.062Z,20.47
2018-03-21T10:13:09.047Z,20.45
2018-03-21T10:15:35.004Z,20.44
2018-03-21T10:18:00.973Z,20.43
2018-03-21T10:20:26.922Z,20.35
2018-03-21T10:22:52.941Z,20.40
2018-03-21T10:25:18.898Z,20.43
2018-03-21T10:27:44.878Z,20.32
2018-03-21T10:30:10.909Z,20.32
2018-03-21T10:32:36.865Z,20.39
2018-03-21T10:35:02.845Z,20.35
2018-03-21T10:37:28.793Z,20.26
2018-03-21T10:39:54.782Z,20.25
2018-03-21T10:42:20.745Z,20.28
2018-03-21T10:44:46.714Z,20.20
2018-03-21T10:47:12.675Z,20.22
2018-03-21T10:49:38.647Z,20.34
2018-03-21T10:52:04.638Z,20.24
2018-03-21T10:54:30.666Z,20.18
2018-03-21T10:56:56.610Z,20.20
2018-03-21T10:59:22.581Z,20.31
2018-03-21T11:01:48.540Z,20.40
2018-03-21T11:04:14.509Z,20.50
2018-03-21T11:06:40.474Z,20.49
2018-03-21T11:09:06.433Z,20.52
2018-03-21T11:11:32.399Z,20.49
2018-03-21T11:13:58.357Z,20.41
2018-03-21T11:16:24.317Z,20.39
2018-03-21T11:18:50.317Z,20.40
2018-03-21T11:21:16.287Z,20.35
2018-03-21T11:23:42.306Z,20.31
2018-03-21T11:26:08.280Z,20.36
2018-03-21T11:28:34.268Z,20.39
2018-03-21T11:31:00.249Z,20.37
2018-03-21T11:33:26.225Z,20.31
2018-03-21T11:35:52.187Z,20.35
2018-03-21T11:38:18.184Z,20.45
2018-03-21T11:40:44.133Z,20.42
2018-03-21T11:43:10.102Z,20.33
2018-03-21T11:45:36.061Z,20.39
2018-03-21T11:48:02.048Z,20.30
2018-03-21T11:50:28.008Z,20.47
2018-03-21T11:52:53.988Z,20.37
2018-03-21T11:55:19.953Z,20.38
2018-03-21T11:57:45.971Z,20.38
2018-03-21T12:00:11.942Z,20.35
2018-03-21T12:02:37.902Z,20.29
2018-03-21T12:05:03.856Z,20.28
2018-03-21T12:07:29.817Z,20.28
2018-03-21T12:09:55.771Z,20.34
2018-03-21T12:12:21.759Z,20.38
2018-03-21T12:14:47.714Z,20.28
2018-03-21T12:17:13.700Z,20.29
2018-03-21T12:19:39.668Z,20.32
2018-03-21T12:22:05.625Z,20.33
2018-03-21T12:24:31.582Z,20.32
2018-03-21T12:26:57.537Z,20.29
2018-03-21T12:29:23.489Z,20.22
2018-03-21T12:31:49.449Z,20.29
2018-03-21T12:34:15.430Z,20.30
2018-03-21T12:36:41.393Z,20.26
2018-03-21T12:39:07.358Z,20.20
2018-03-21T12:41:33.310Z,20.33
2018-03-21T12:43:59.296Z,20.44
2018-03-21T12:46:25.250Z,20.51
2018-03-21T12:48:51.210Z,20.45
2018-03-21T12:51:17.176Z,20.43
2018-03-21T12:53:43.158Z,20.41
2018-03-21T12:56:09.195Z,20.36
2018-03-21T12:58:35.105Z,20.31
2018-03-21T13:01:01.086Z,20.39
2018-03-21T13:03:27.057Z,20.36
2018-03-21T13:05:53.028Z,20.37
2018-03-21T13:08:18.983Z,20.38
2018-03-21T13:10:44.992Z,20.38
2018-03-21T13:13:10.939Z,20.26
2018-03-21T13:15:36.906Z,20.27
2018-03-21T13:18:02.879Z,20.26
2018-03-21T13:20:28.843Z,20.31
2018-03-21T13:22:54.814Z,20.31
2018-03-21T13:25:20.792Z,20.38
2018-03-21T13:27:46.781Z,20.39
2018-03-21T13:30:12.756Z,20.42
2018-03-21T13:32:38.752Z,20.40
2018-03-21T13:35:04.757Z,20.44
2018-03-21T13:37:30.719Z,20.45
2018-03-21T13:39:56.698Z,20.43
2018-03-21T13:42:22.682Z,20.50
2018-03-21T13:44:48.705Z,20.37
2018-03-21T13:47:14.676Z,20.33
2018-03-21T13:49:40.630Z,20.31
2018-03-21T13:52:06.607Z,20.23
2018-03-21T13:54:32.576Z,20.31
2018-03-21T13:56:58.590Z,20.30
2018-03-21T13:59:24.602Z,20.23
2018-03-21T14:01:50.578Z,20.33
2018-03-21T14:04:16.557Z,20.40
2018-03-21T14:06:42.552Z,20.26
2018-03-21T14:09:08.601Z,20.38
2018-03-21T14:11:34.588Z,20.43
2018-03-21T14:14:00.522Z,20.52
2018-03-21T14:16:26.512Z,20.42
2018-03-21T14:18:52.475Z,20.40
2018-03-21T14:21:18.648Z,20.43
2018-03-21T14:23:44.669Z,20.41
2018-03-21T14:26:10.662Z,20.50
2018-03-21T14:28:36.707Z,20.52
2018-03-21T14:31:02.691Z,20.46
2018-03-21T14:33:28.650Z,20.51
2018-03-21T14:35:54.700Z,20.53
2018-03-21T14:38:20.733Z,20.51
2018-03-21T14:40:46.709Z,20.45
2018-03-21T14:43:12.691Z,20.44
2018-03-21T14:45:38.695Z,20.48
2018-03-21T14:48:04.682Z,20.39
2018-03-21T14:50:30.661Z,20.36
2018-03-21T14:52:56.654Z,20.37
2018-03-21T14:55:22.637Z,20.35
2018-03-21T14:57:48.589Z,20.29
2018-03-21T15:00:14.554Z,20.33
2018-03-21T15:02:40.545Z,20.33
2018-03-21T15:05:06.528Z,20.26
2018-03-21T15:07:32.495Z,20.23
2018-03-21T15:09:58.542Z,20.32
2018-03-21T15:12:24.503Z,20.33
2018-03-21T15:14:50.490Z,20.32
2018-03-21T15:17:16.498Z,20.32
2018-03-21T15:19:42.488Z,20.32
2018-03-21T15:22:08.449Z,20.30
2018-03-21T15:24:34.408Z,20.35
2018-03-21T15:27:00.383Z,20.35
2018-03-21T15:29:26.351Z,20.31
2018-03-21T15:31:52.314Z,20.38
2018-03-21T15:34:18.274Z,20.39
2018-03-21T15:36:44.243Z,20.33
2018-03-21T15:39:10.203Z,20.32
2018-03-21T15:41:36.182Z,20.32
2018-03-21T15:44:02.160Z,20.35
2018-03-21T15:46:28.162Z,20.30
2018-03-21T15:48:54.135Z,20.28
2018-03-21T15:51:20.153Z,20.30
2018-03-21T15:53:46.135Z,20.26
2018-03-21T15:56:12.098Z,20.31
2018-03-21T15:58:38.070Z,20.31
2018-03-21T16:01:04.055Z,20.35
2018-03-21T16:03:30.019Z,20.29
2018-03-21T16:05:56.059Z,20.32
2018-03-21T16:08:21.982Z,20.32
2018-03-21T16:10:47.949Z,20.29
2018-03-21T16:13:13.904Z,20.30
2018-03-21T16:15:39.865Z,20.31
2018-03-21T16:18:05.811Z,20.36
2018-03-21T16:20:31.769Z,20.31
2018-03-21T16:22:57.763Z,20.28
2018-03-21T16:25:23.727Z,20.28
2018-03-21T16:27:49.677Z,20.35
2018-03-21T16:30:15.678Z,20.36
2018-03-21T16:32:41.639Z,20.39
2018-03-21T16:35:07.613Z,20.33
2018-03-21T16:37:33.574Z,20.36
2018-03-21T16:39:59.551Z,20.35
2018-03-21T16:42:25.525Z,20.41
2018-03-21T16:44:51.618Z,20.31
2018-03-21T16:47:17.644Z,20.37
2018-03-21T16:49:43.610Z,20.44
2018-03-21T16:52:09.590Z,20.46
2018-03-21T16:54:35.536Z,20.44
2018-03-21T16:57:01.526Z,20.43
2018-03-21T16:59:27.536Z,20.47
2018-03-21T17:01:53.535Z,20.52
2018-03-21T17:04:19.498Z,20.52
2018-03-21T17:06:45.450Z,20.56
2018-03-21T17:09:11.507Z,20.55
2018-03-21T17:11:37.482Z,20.51
2018-03-21T17:14:03.455Z,20.58
2018-03-21T17:16:29.419Z,20.60
2018-03-21T17:18:55.385Z,20.58
2018-03-21T17:21:21.363Z,20.54
2018-03-21T17:23:47.426Z,20.68
2018-03-21T17:26:13.431Z,20.70
2018-03-21T17:28:39.388Z,20.77
2018-03-21T17:31:05.388Z,20.78
2018-03-21T17:33:31.394Z,20.79
2018-03-21T17:35:57.372Z,20.82
2018-03-21T17:38:23.387Z,20.84
2018-03-21T17:40:49.363Z,20.70
2018-03-21T17:43:15.348Z,20.65
2018-03-21T17:45:41.359Z,20.76
2018-03-21T17:48:07.337Z,20.73
2018-03-21T17:50:33.318Z,20.72
2018-03-21T17:52:59.312Z,20.71
2018-03-21T17:55:25.295Z,20.66
2018-03-21T17:57:51.267Z,20.64
2018-03-21T18:00:17.293Z,20.66
2018-03-21T18:02:43.266Z,20.68
2018-03-21T18:05:09.240Z,20.64
2018-03-21T18:07:35.205Z,20.69
2018-03-21T18:10:01.251Z,20.60
2018-03-21T18:12:27.228Z,20.63
2018-03-21T18:14:53.190Z,20.54
2018-03-21T18:17:19.150Z,20.68
2018-03-21T18:19:45.236Z,20.62
2018-03-21T18:22:11.200Z,20.48
2018-03-21T18:24:37.205Z,20.59
2018-03-21T18:27:03.319Z,20.47
2018-03-21T18:29:29.306Z,20.43
2018-03-21T18:31:55.266Z,20.47
2018-03-21T18:34:21.255Z,20.45
2018-03-21T18:36:47.239Z,20.39
2018-03-21T18:39:13.212Z,20.36
2018-03-21T18:41:39.172Z,20.42
2018-03-21T18:44:05.156Z,20.46
2018-03-21T18:46:31.133Z,20.43
2018-03-21T18:48:57.108Z,20.36
2018-03-21T18:51:23.084Z,20.43
2018-03-21T18:53:49.058Z,20.42
2018-03-21T18:56:15.076Z,20.42
2018-03-21T18:58:41.062Z,20.45
2018-03-21T19:01:07.044Z,20.46
2018-03-21T19:03:32.994Z,20.41
2018-03-21T19:05:58.961Z,20.44
2018-03-21T19:08:24.935Z,20.41
2018-03-21T19:10:50.898Z,20.39
2018-03-21T19:13:20.148Z,20.35
2018-03-21T19:15:42.880Z,20.39
2018-03-21T19:18:08.843Z,20.38
2018-03-21T19:20:34.828Z,20.34
2018-03-21T19:23:00.815Z,20.38
2018-03-21T19:25:26.779Z,20.42
2018-03-21T19:27:52.913Z,20.41
2018-03-21T19:30:18.907Z,20.40
2018-03-21T19:32:44.895Z,20.34
2018-03-21T19:35:10.879Z,20.37
2018-03-21T19:37:36.859Z,20.50
2018-03-21T19:40:02.830Z,20.42
2018-03-21T19:42:28.813Z,20.44
2018-03-21T19:44:54.792Z,20.39
2018-03-21T19:47:20.798Z,20.40
2018-03-21T19:49:46.774Z,20.40
2018-03-21T19:52:12.755Z,20.41
2018-03-21T19:54:38.726Z,20.43
2018-03-21T19:57:04.699Z,20.39
2018-03-21T19:59:30.687Z,20.43
2018-03-21T20:01:56.656Z,20.37
2018-03-21T20:04:22.664Z,20.39
2018-03-21T20:06:48.700Z,20.38
2018-03-21T20:09:14.722Z,20.36
2018-03-21T20:11:40.687Z,20.38
2018-03-21T20:14:06.675Z,20.36
2018-03-21T20:16:32.726Z,20.35
2018-03-21T20:18:58.711Z,20.38
2018-03-21T20:21:24.730Z,20.40
2018-03-21T20:23:50.718Z,20.40
2018-03-21T20:26:16.682Z,20.40
2018-03-21T20:28:42.654Z,20.36
2018-03-21T20:31:08.727Z,20.40
2018-03-21T20:33:34.699Z,20.43
2018-03-21T20:36:00.662Z,20.51
2018-03-21T20:38:26.646Z,20.43
2018-03-21T20:40:52.627Z,20.41
2018-03-21T20:43:18.587Z,20.45
2018-03-21T20:45:44.623Z,20.43
2018-03-21T20:48:10.619Z,20.41
2018-03-21T20:50:36.627Z,20.36
2018-03-21T20:53:02.618Z,20.37
2018-03-21T20:55:28.611Z,20.37
2018-03-21T20:57:54.593Z,20.44
2018-03-21T21:00:20.609Z,20.38
2018-03-21T21:02:46.599Z,20.37
2018-03-21T21:05:12.672Z,20.38
2018-03-21T21:07:38.661Z,20.37
2018-03-21T21:10:04.619Z,20.35
2018-03-21T21:12:30.966Z,20.30
2018-03-21T21:14:56.934Z,20.28
2018-03-21T21:17:22.949Z,20.28
2018-03-21T21:19:48.913Z,20.34
2018-03-21T21:22:14.920Z,20.30
2018-03-21T21:24:40.899Z,20.27
2018-03-21T21:27:06.860Z,20.26
2018-03-21T21:29:32.918Z,20.23
2018-03-21T21:31:58.888Z,20.18
2018-03-21T21:34:24.872Z,20.17
2018-03-21T21:36:50.952Z,20.20
2018-03-21T21:39:17.942Z,20.19
2018-03-21T21:41:43.897Z,20.13
2018-03-21T21:44:10.847Z,20.15
2018-03-21T21:46:36.804Z,20.07
2018-03-21T21:49:02.779Z,20.14
2018-03-21T21:51:28.726Z,20.19
2018-03-21T21:53:54.694Z,20.13
2018-03-21T21:56:20.689Z,20.12
2018-03-21T21:58:46.660Z,20.18
2018-03-21T22:01:12.667Z,20.10
2018-03-21T22:03:38.629Z,20.07
2018-03-21T22:06:04.605Z,20.09
2018-03-21T22:08:30.678Z,20.09
2018-03-21T22:10:56.654Z,20.10
2018-03-21T22:13:22.638Z,20.08
2018-03-21T22:15:48.704Z,20.07
2018-03-21T22:18:14.702Z,20.03
2018-03-21T22:20:40.658Z,20.00
2018-03-21T22:23:06.650Z,20.02
2018-03-21T22:25:32.614Z,20.02
2018-03-21T22:27:58.569Z,19.99
2018-03-21T22:30:24.524Z,19.98
2018-03-21T22:32:50.606Z,19.95
2018-03-21T22:35:16.607Z,19.98
2018-03-21T22:37:42.571Z,20.00
2018-03-21T22:40:08.846Z,19.98
2018-03-21T22:42:34.810Z,19.97
2018-03-21T22:45:00.762Z,19.94
2018-03-21T22:47:26.718Z,19.93
2018-03-21T22:49:52.701Z,19.93
2018-03-21T22:52:18.675Z,19.89
2018-03-21T22:54:44.894Z,19.89
2018-03-21T22:57:10.846Z,19.94
2018-03-21T22:59:36.817Z,19.88
2018-03-21T23:02:02.792Z,19.85
2018-03-21T23:04:28.774Z,19.83
2018-03-21T23:06:54.838Z,19.85
2018-03-21T23:09:20.822Z,19.82
2018-03-21T23:11:46.781Z,19.83
2018-03-21T23:14:12.785Z,19.90
2018-03-21T23:16:38.797Z,19.81
2018-03-21T23:19:04.779Z,19.78
2018-03-21T23:21:30.734Z,19.78
2018-03-21T23:23:56.721Z,19.76
2018-03-21T23:26:22.701Z,19.75
2018-03-21T23:28:48.789Z,19.78
2018-03-21T23:31:14.802Z,19.77
2018-03-21T23:33:40.770Z,19.80
2018-03-21T23:36:06.766Z,19.79
2018-03-21T23:38:32.771Z,19.78
2018-03-21T23:40:58.767Z,19.73
2018-03-21T23:43:24.710Z,19.75
2018-03-21T23:45:50.692Z,19.80
2018-03-21T23:48:16.696Z,19.75
2018-03-21T23:50:42.656Z,19.77
2018-03-21T23:53:08.640Z,19.77
2018-03-21T23:55:34.611Z,19.75
2018-03-21T23:58:00.598Z,19.80
